Time;durP1;ratioP1;P1;durP2;ratioP2;P2;SDS_P1;SDS_P2;PMS_P1;PMS_P2;Temp;Humidity;BMP_temperature;BMP_pressure;BME280_temperature;BME280_humidity;BME280_pressure;Samples;Min_cycle;Max_cycle;Signal;HPM_P1;HPM_P2
2021/01/11 00:01:44;;;;;;;32.80;22.93;;;;;;;;;;5053803;28;20238;-89
2021/01/11 00:04:18;;;;;;;35.13;22.50;;;;;;;;;;5053527;28;20179;-88
2021/01/11 00:06:50;;;;;;;36.33;25.07;;;;;;;;;;5053140;28;20527;-89
2021/01/11 00:09:21;;;;;;;32.33;22.17;;;;;;;;;;5052394;28;20183;-89
2021/01/11 00:11:51;;;;;;;36.53;22.37;;;;;;;;;;5052088;28;20206;-89
2021/01/11 00:14:20;;;;;;;33.40;21.47;;;;;;;;;;5053420;28;20217;-89
2021/01/11 00:16:50;;;;;;;27.27;18.47;;;;;;;;;;5052384;28;20550;-89
2021/01/11 00:19:21;;;;;;;35.87;24.10;;;;;;;;;;5052156;28;20185;-88
2021/01/11 00:21:51;;;;;;;35.87;22.97;;;;;;;;;;5053530;28;20281;-89
2021/01/11 00:24:21;;;;;;;34.20;21.60;;;;;;;;;;5052057;28;20598;-88
2021/01/11 00:26:58;;;;;;;46.20;27.93;;;;;;;;;;5053344;28;20198;-89
2021/01/11 00:29:29;;;;;;;44.00;26.13;;;;;;;;;;5053268;28;20612;-89
2021/01/11 00:32:01;;;;;;;39.07;22.73;;;;;;;;;;5051361;28;20206;-88
2021/01/11 00:34:35;;;;;;;50.07;26.93;;;;;;;;;;5053553;28;20677;-88
2021/01/11 00:37:06;;;;;;;44.27;26.70;;;;;;;;;;5051865;28;20695;-88
2021/01/11 00:39:37;;;;;;;48.30;26.90;;;;;;;;;;5052289;28;20191;-88
2021/01/11 00:42:16;;;;;;;42.73;25.77;;;;;;;;;;5052225;28;20192;-88
2021/01/11 00:44:49;;;;;;;42.23;25.33;;;;;;;;;;5053027;28;20168;-87
2021/01/11 00:47:18;;;;;;;52.23;27.60;;;;;;;;;;5052726;28;20179;-87
2021/01/11 00:49:50;;;;;;;42.53;24.80;;;;;;;;;;5053541;28;20170;-87
2021/01/11 00:52:21;;;;;;;22.87;16.40;;;;;;;;;;5052765;28;20278;-87
2021/01/11 00:54:51;;;;;;;42.03;25.27;;;;;;;;;;5057349;28;20179;-87
2021/01/11 00:57:17;;;;;;;35.47;22.13;;;;;;;;;;5053283;28;20199;-87
2021/01/11 00:59:43;;;;;;;28.40;19.27;;;;;;;;;;5051815;28;20174;-87
2021/01/11 01:02:18;;;;;;;34.50;23.27;;;;;;;;;;5051561;28;20221;-88
2021/01/11 01:04:51;;;;;;;44.33;21.90;;;;;;;;;;5051739;28;20174;-88
2021/01/11 01:07:31;;;;;;;30.33;18.63;;;;;;;;;;5052266;28;20664;-88
2021/01/11 01:10:04;;;;;;;20.57;14.67;;;;;;;;;;5051638;28;20179;-88
2021/01/11 01:12:31;;;;;;;30.33;19.83;;;;;;;;;;5051754;28;20660;-88
2021/01/11 01:15:00;;;;;;;25.27;16.63;;;;;;;;;;5051666;28;20255;-88
2021/01/11 01:17:31;;;;;;;33.73;18.00;;;;;;;;;;5052694;28;20674;-88
2021/01/11 01:20:04;;;;;;;31.73;19.27;;;;;;;;;;5052991;28;20626;-88
2021/01/11 01:22:39;;;;;;;39.00;23.67;;;;;;;;;;5051440;28;20203;-88
2021/01/11 01:25:11;;;;;;;21.53;14.57;;;;;;;;;;5051558;28;20179;-88
2021/01/11 01:27:43;;;;;;;29.73;18.50;;;;;;;;;;5052880;28;20184;-88
2021/01/11 01:30:15;;;;;;;43.17;24.83;;;;;;;;;;5051552;28;20560;-88
2021/01/11 01:32:42;;;;;;;41.33;22.83;;;;;;;;;;5051506;28;20633;-88
2021/01/11 01:35:13;;;;;;;42.77;23.00;;;;;;;;;;5051450;28;20603;-88
2021/01/11 01:37:42;;;;;;;42.63;24.67;;;;;;;;;;5051453;28;20217;-88
2021/01/11 01:40:15;;;;;;;25.63;14.47;;;;;;;;;;5051356;28;20187;-88
2021/01/11 01:42:45;;;;;;;32.70;20.30;;;;;;;;;;5052508;28;20196;-88
2021/01/11 01:45:17;;;;;;;34.07;19.20;;;;;;;;;;5053667;28;20233;-88
2021/01/11 01:47:47;;;;;;;43.13;24.57;;;;;;;;;;5054962;28;20172;-88
2021/01/11 01:50:14;;;;;;;44.50;25.70;;;;;;;;;;5054876;28;20180;-88
2021/01/11 01:52:46;;;;;;;46.40;25.97;;;;;;;;;;5054737;28;20203;-88
2021/01/11 01:55:17;;;;;;;36.00;22.30;;;;;;;;;;5054663;28;20180;-88
2021/01/11 01:57:47;;;;;;;44.57;26.20;;;;;;;;;;5054683;28;20181;-88
2021/01/11 02:00:19;;;;;;;34.20;21.57;;;;;;;;;;5054601;28;20206;-88
2021/01/11 02:02:54;;;;;;;39.53;26.43;;;;;;;;;;5055709;28;20662;-88
2021/01/11 02:05:24;;;;;;;26.27;18.17;;;;;;;;;;5055777;28;20186;-88
2021/01/11 02:08:02;;;;;;;31.80;19.20;;;;;;;;;;5055713;28;20178;-88
2021/01/11 02:10:40;;;;;;;22.73;15.50;;;;;;;;;;5054367;28;20179;-88
2021/01/11 02:13:28;;;;;;;38.10;22.67;;;;;;;;;;5054719;28;20631;-88
2021/01/11 02:15:55;;;;;;;27.10;17.73;;;;;;;;;;5054326;28;20208;-88
2021/01/11 02:18:39;;;;;;;27.60;16.73;;;;;;;;;;5055787;28;20179;-88
2021/01/11 02:21:09;;;;;;;27.97;17.43;;;;;;;;;;5055309;28;20198;-88
2021/01/11 02:23:43;;;;;;;51.33;26.53;;;;;;;;;;5054185;28;20179;-88
2021/01/11 02:26:14;;;;;;;35.70;18.63;;;;;;;;;;5054230;28;20642;-88
2021/01/11 02:28:59;;;;;;;46.93;23.67;;;;;;;;;;5055451;28;20183;-88
2021/01/11 02:31:30;;;;;;;33.27;19.27;;;;;;;;;;5054208;28;20227;-88
2021/01/11 02:34:01;;;;;;;43.40;23.37;;;;;;;;;;5055253;28;20183;-88
2021/01/11 02:36:32;;;;;;;35.73;19.77;;;;;;;;;;5055090;28;20234;-88
2021/01/11 02:39:01;;;;;;;47.33;23.47;;;;;;;;;;5055135;28;20255;-88
2021/01/11 02:41:32;;;;;;;40.70;21.67;;;;;;;;;;5053727;28;20268;-88
2021/01/11 02:44:06;;;;;;;33.83;20.23;;;;;;;;;;5053886;28;20174;-88
2021/01/11 02:46:37;;;;;;;45.23;25.20;;;;;;;;;;5053831;28;20643;-88
2021/01/11 02:49:18;;;;;;;47.97;26.37;;;;;;;;;;5053612;28;20557;-88
2021/01/11 02:52:07;;;;;;;25.77;16.63;;;;;;;;;;5053618;28;20574;-88
2021/01/11 02:54:46;;;;;;;40.70;21.20;;;;;;;;;;5053140;28;20188;-88
2021/01/11 02:57:34;;;;;;;49.80;23.83;;;;;;;;;;5053930;28;20652;-88
2021/01/11 03:00:10;;;;;;;45.93;22.50;;;;;;;;;;5053985;28;20186;-88
2021/01/11 03:02:45;;;;;;;47.00;23.03;;;;;;;;;;5053309;28;20218;-88
2021/01/11 03:05:20;;;;;;;37.97;17.07;;;;;;;;;;5053656;28;20175;-88
2021/01/11 03:07:58;;;;;;;43.37;21.70;;;;;;;;;;5053421;28;20183;-88
2021/01/11 03:10:30;;;;;;;71.37;31.70;;;;;;;;;;5053325;28;20251;-88
2021/01/11 03:13:03;;;;;;;72.37;33.13;;;;;;;;;;5053340;28;20188;-88
2021/01/11 03:15:40;;;;;;;37.50;19.73;;;;;;;;;;5053055;28;20266;-88
2021/01/11 03:18:13;;;;;;;51.67;25.50;;;;;;;;;;5053218;28;20186;-88
2021/01/11 03:20:45;;;;;;;50.17;23.93;;;;;;;;;;5053774;28;20746;-88
2021/01/11 03:23:15;;;;;;;41.73;19.93;;;;;;;;;;5054292;28;20515;-88
2021/01/11 03:25:48;;;;;;;60.60;28.33;;;;;;;;;;5053046;28;20270;-88
2021/01/11 03:28:19;;;;;;;65.20;29.97;;;;;;;;;;5053026;28;20188;-88
2021/01/11 03:30:46;;;;;;;80.23;33.70;;;;;;;;;;5052770;28;20212;-88
2021/01/11 03:33:16;;;;;;;70.97;32.27;;;;;;;;;;5052885;28;20274;-88
2021/01/11 03:35:45;;;;;;;63.27;27.50;;;;;;;;;;5052743;28;20203;-88
2021/01/11 03:38:17;;;;;;;46.47;23.07;;;;;;;;;;5052924;28;20180;-88
2021/01/11 03:40:49;;;;;;;51.80;23.90;;;;;;;;;;5054254;28;20200;-88
2021/01/11 03:43:19;;;;;;;57.73;25.17;;;;;;;;;;5052628;28;20184;-88
2021/01/11 03:45:48;;;;;;;65.07;26.87;;;;;;;;;;5053747;28;20174;-88
2021/01/11 03:48:19;;;;;;;47.27;19.77;;;;;;;;;;5052780;28;20647;-88
2021/01/11 03:50:51;;;;;;;53.17;25.50;;;;;;;;;;5052457;28;20287;-88
2021/01/11 03:53:17;;;;;;;63.47;28.87;;;;;;;;;;5052624;28;20647;-88
2021/01/11 03:55:47;;;;;;;46.50;21.77;;;;;;;;;;5052429;28;20210;-88
2021/01/11 03:58:19;;;;;;;30.37;17.93;;;;;;;;;;5052420;28;20649;-88
2021/01/11 04:00:45;;;;;;;43.23;21.97;;;;;;;;;;5052275;28;20198;-88
2021/01/11 04:03:15;;;;;;;36.67;21.07;;;;;;;;;;5052378;28;20172;-88
2021/01/11 04:05:50;;;;;;;40.83;19.77;;;;;;;;;;5052310;28;20191;-88
2021/01/11 04:08:25;;;;;;;40.27;21.50;;;;;;;;;;5052796;28;20182;-88
2021/01/11 04:10:55;;;;;;;46.23;21.23;;;;;;;;;;5052181;28;20237;-88
2021/01/11 04:13:25;;;;;;;34.87;17.03;;;;;;;;;;5053562;28;20188;-88
2021/01/11 04:15:52;;;;;;;37.67;19.53;;;;;;;;;;5052438;28;20214;-88
2021/01/11 04:18:21;;;;;;;33.03;17.47;;;;;;;;;;5053418;28;20237;-88
2021/01/11 04:20:50;;;;;;;30.60;17.60;;;;;;;;;;5053565;28;20571;-88
2021/01/11 04:23:21;;;;;;;36.77;18.80;;;;;;;;;;5052428;28;20536;-88
2021/01/11 04:25:54;;;;;;;40.80;20.50;;;;;;;;;;5052142;28;20269;-88
2021/01/11 04:28:25;;;;;;;36.60;21.57;;;;;;;;;;5052102;28;20665;-88
2021/01/11 04:30:54;;;;;;;57.03;26.23;;;;;;;;;;5053092;28;20206;-88
2021/01/11 04:33:23;;;;;;;48.53;26.63;;;;;;;;;;5052810;28;20187;-88
2021/01/11 04:35:49;;;;;;;48.43;24.30;;;;;;;;;;5053117;28;20578;-88
2021/01/11 04:38:21;;;;;;;43.37;19.40;;;;;;;;;;5052062;28;20546;-88
2021/01/11 04:40:54;;;;;;;44.97;22.23;;;;;;;;;;5052097;28;20281;-88
2021/01/11 04:43:24;;;;;;;34.70;17.73;;;;;;;;;;5051826;28;20666;-88
2021/01/11 04:45:55;;;;;;;32.97;18.77;;;;;;;;;;5051904;28;20193;-88
2021/01/11 04:48:26;;;;;;;47.13;22.93;;;;;;;;;;5053346;28;20531;-88
2021/01/11 04:50:58;;;;;;;40.17;20.07;;;;;;;;;;5053702;28;20210;-88
2021/01/11 04:53:29;;;;;;;57.10;25.47;;;;;;;;;;5053082;28;20180;-88
2021/01/11 04:56:01;;;;;;;32.67;18.47;;;;;;;;;;5051677;28;20282;-88
2021/01/11 04:58:37;;;;;;;46.53;22.07;;;;;;;;;;5053110;28;20203;-88
2021/01/11 05:01:07;;;;;;;44.33;21.97;;;;;;;;;;5052901;28;20286;-88
2021/01/11 05:03:42;;;;;;;51.33;26.77;;;;;;;;;;5051656;28;20202;-88
2021/01/11 05:06:11;;;;;;;30.17;17.90;;;;;;;;;;5051988;28;20279;-88
2021/01/11 05:08:44;;;;;;;57.67;28.23;;;;;;;;;;5052899;28;20199;-88
2021/01/11 05:11:15;;;;;;;35.33;17.20;;;;;;;;;;5051560;28;20199;-88
2021/01/11 05:13:50;;;;;;;43.87;24.27;;;;;;;;;;5051810;28;20216;-88
2021/01/11 05:16:22;;;;;;;57.70;30.70;;;;;;;;;;5051736;28;20206;-88
2021/01/11 05:19:00;;;;;;;45.73;25.13;;;;;;;;;;5053587;28;20174;-88
2021/01/11 05:21:46;;;;;;;45.17;24.53;;;;;;;;;;5055666;28;20225;-88
2021/01/11 05:24:33;;;;;;;47.33;23.87;;;;;;;;;;5055349;28;20179;-88
2021/01/11 05:27:06;;;;;;;32.60;17.73;;;;;;;;;;5056489;28;20206;-88
2021/01/11 05:29:39;;;;;;;34.23;22.70;;;;;;;;;;5055231;28;20269;-88
2021/01/11 05:32:10;;;;;;;46.07;24.47;;;;;;;;;;5055205;28;20214;-88
2021/01/11 05:34:50;;;;;;;36.47;19.33;;;;;;;;;;5056318;28;20184;-88
2021/01/11 05:37:39;;;;;;;29.70;18.53;;;;;;;;;;5054915;28;20206;-88
2021/01/11 05:40:09;;;;;;;36.83;21.30;;;;;;;;;;5054920;28;20655;-88
2021/01/11 05:42:40;;;;;;;29.07;16.47;;;;;;;;;;5056156;28;20189;-88
2021/01/11 05:45:14;;;;;;;39.87;17.40;;;;;;;;;;5054970;28;20271;-88
2021/01/11 05:47:59;;;;;;;32.80;19.90;;;;;;;;;;5055054;28;20640;-88
2021/01/11 05:50:29;;;;;;;30.50;19.17;;;;;;;;;;5054830;28;20552;-87
2021/01/11 05:53:01;;;;;;;35.93;21.50;;;;;;;;;;5055084;28;20187;-88
2021/01/11 05:55:33;;;;;;;30.87;18.33;;;;;;;;;;5056193;28;20263;-88
2021/01/11 05:58:06;;;;;;;51.50;28.30;;;;;;;;;;5054873;28;20692;-88
2021/01/11 06:00:39;;;;;;;39.43;20.70;;;;;;;;;;5054632;28;20183;-88
2021/01/11 06:03:12;;;;;;;33.50;20.77;;;;;;;;;;5054606;28;20187;-88
2021/01/11 06:05:41;;;;;;;42.90;25.93;;;;;;;;;;5054698;28;20179;-88
2021/01/11 06:08:14;;;;;;;30.33;17.63;;;;;;;;;;5056248;28;20180;-88
2021/01/11 06:10:49;;;;;;;19.00;14.63;;;;;;;;;;5055871;28;20554;-88
2021/01/11 06:13:21;;;;;;;23.07;16.53;;;;;;;;;;5054419;28;20183;-88
2021/01/11 06:15:51;;;;;;;20.70;15.23;;;;;;;;;;5054640;28;20206;-88
2021/01/11 06:18:25;;;;;;;19.00;14.23;;;;;;;;;;5054296;28;20564;-88
2021/01/11 06:20:55;;;;;;;23.47;17.53;;;;;;;;;;5055478;28;20197;-88
2021/01/11 06:23:39;;;;;;;19.73;14.20;;;;;;;;;;5054185;28;20557;-88
2021/01/11 06:26:36;;;;;;;23.20;17.47;;;;;;;;;;5055984;28;20183;-88
2021/01/11 06:29:25;;;;;;;26.93;16.87;;;;;;;;;;5054282;28;20199;-88
2021/01/11 06:31:56;;;;;;;22.00;15.43;;;;;;;;;;5055021;28;20205;-88
2021/01/11 06:34:40;;;;;;;20.53;14.67;;;;;;;;;;5054410;28;20186;-88
2021/01/11 06:37:19;;;;;;;19.73;15.83;;;;;;;;;;5053844;28;20740;-88
2021/01/11 06:39:51;;;;;;;18.77;14.90;;;;;;;;;;5054131;28;20177;-88
2021/01/11 06:42:23;;;;;;;17.80;12.67;;;;;;;;;;5053793;28;20198;-88
2021/01/11 06:44:54;;;;;;;24.43;17.37;;;;;;;;;;5055331;28;20172;-87
2021/01/11 06:47:30;;;;;;;18.87;14.43;;;;;;;;;;5055012;28;20615;-88
2021/01/11 06:50:05;;;;;;;22.47;12.20;;;;;;;;;;5054859;28;20643;-88
2021/01/11 06:52:39;;;;;;;22.03;14.77;;;;;;;;;;5053591;28;20699;-88
2021/01/11 06:55:18;;;;;;;19.90;15.10;;;;;;;;;;5054915;28;20202;-88
2021/01/11 06:57:48;;;;;;;16.50;13.07;;;;;;;;;;5066175;22;20230;-87
2021/01/11 07:00:21;;;;;;;14.30;12.43;;;;;;;;;;5038214;28;20171;-87
2021/01/11 07:02:48;;;;;;;22.73;16.33;;;;;;;;;;5037843;28;20680;-87
2021/01/11 07:05:44;;;;;;;15.67;13.70;;;;;;;;;;5037602;28;20181;-86
2021/01/11 07:08:21;;;;;;;17.50;11.90;;;;;;;;;;5056747;28;20200;-87
2021/01/11 07:11:05;;;;;;;17.00;12.53;;;;;;;;;;5057727;28;20173;-86
2021/01/11 07:13:32;;;;;;;15.73;11.77;;;;;;;;;;5075829;28;20187;-87
2021/01/11 07:16:04;;;;;;;17.93;14.00;;;;;;;;;;5057824;28;20202;-87
2021/01/11 07:18:41;;;;;;;20.67;14.97;;;;;;;;;;5057134;28;20176;-87
2021/01/11 07:21:26;;;;;;;23.43;16.93;;;;;;;;;;5056935;28;20170;-86
2021/01/11 07:23:56;;;;;;;18.07;13.57;;;;;;;;;;5074763;28;20174;-87
2021/01/11 07:26:28;;;;;;;22.60;15.80;;;;;;;;;;5057144;28;20198;-87
2021/01/11 07:29:00;;;;;;;17.33;13.40;;;;;;;;;;5058315;28;20183;-85
2021/01/11 07:31:32;;;;;;;25.20;18.63;;;;;;;;;;5059139;28;20181;-84
2021/01/11 07:34:01;;;;;;;22.77;15.43;;;;;;;;;;5075908;28;20200;-87
2021/01/11 07:36:40;;;;;;;12.20;10.93;;;;;;;;;;5074612;28;20211;-86
2021/01/11 07:39:25;;;;;;;16.40;13.33;;;;;;;;;;5074937;28;20155;-86
2021/01/11 07:41:58;;;;;;;18.07;15.70;;;;;;;;;;5056927;28;20177;-86
2021/01/11 07:44:33;;;;;;;14.20;11.67;;;;;;;;;;5074522;28;20171;-87
2021/01/11 07:47:05;;;;;;;18.00;14.37;;;;;;;;;;5056261;28;20248;-86
2021/01/11 07:49:35;;;;;;;20.00;13.13;;;;;;;;;;5074828;28;20583;-86
2021/01/11 07:52:10;;;;;;;17.27;14.70;;;;;;;;;;5075174;28;20669;-85
2021/01/11 07:54:41;;;;;;;21.90;15.73;;;;;;;;;;5058325;28;20174;-85
2021/01/11 07:57:18;;;;;;;17.83;15.13;;;;;;;;;;5075824;28;20217;-85
2021/01/11 07:59:50;;;;;;;15.00;13.03;;;;;;;;;;5076241;28;20174;-85
2021/01/11 08:02:26;;;;;;;21.20;17.37;;;;;;;;;;5074808;28;20520;-86
2021/01/11 08:04:57;;;;;;;22.00;15.37;;;;;;;;;;5074195;28;20162;-87
2021/01/11 08:07:35;;;;;;;13.97;12.50;;;;;;;;;;5056061;28;20190;-87
2021/01/11 08:10:07;;;;;;;17.03;13.57;;;;;;;;;;5074203;28;20176;-86
2021/01/11 08:12:39;;;;;;;12.77;11.33;;;;;;;;;;5056045;28;20182;-87
2021/01/11 08:15:11;;;;;;;13.43;11.73;;;;;;;;;;5055785;28;20182;-87
2021/01/11 08:17:46;;;;;;;18.33;13.10;;;;;;;;;;5073956;28;20215;-87
2021/01/11 08:20:25;;;;;;;20.20;15.07;;;;;;;;;;5055837;28;20180;-87
2021/01/11 08:22:58;;;;;;;15.20;13.27;;;;;;;;;;5073761;28;20648;-87
2021/01/11 08:25:34;;;;;;;16.60;13.47;;;;;;;;;;5056339;28;20171;-87
2021/01/11 08:28:07;;;;;;;15.80;14.10;;;;;;;;;;5073816;28;20201;-86
2021/01/11 08:30:40;;;;;;;13.97;12.00;;;;;;;;;;5073691;28;20674;-87
2021/01/11 08:33:11;;;;;;;19.93;14.93;;;;;;;;;;5073847;28;20652;-87
2021/01/11 08:35:45;;;;;;;16.43;12.93;;;;;;;;;;5073693;28;20645;-86
2021/01/11 08:38:16;;;;;;;12.83;11.50;;;;;;;;;;5055806;28;20197;-86
2021/01/11 08:40:50;;;;;;;19.47;16.07;;;;;;;;;;5055730;28;20181;-86
2021/01/11 08:43:21;;;;;;;19.23;16.80;;;;;;;;;;5073829;28;20184;-87
2021/01/11 08:45:55;;;;;;;15.67;14.00;;;;;;;;;;5073685;28;20174;-87
2021/01/11 08:48:31;;;;;;;15.30;13.70;;;;;;;;;;5055880;28;20182;-87
2021/01/11 08:51:03;;;;;;;19.17;17.13;;;;;;;;;;5055587;28;20184;-87
2021/01/11 08:53:31;;;;;;;20.73;15.33;;;;;;;;;;5057360;28;20227;-87
2021/01/11 08:56:08;;;;;;;19.97;15.97;;;;;;;;;;5077849;28;20212;-87
2021/01/11 08:58:36;;;;;;;19.37;16.70;;;;;;;;;;5077124;28;20223;-86
2021/01/11 09:01:18;;;;;;;17.33;14.63;;;;;;;;;;5059317;28;20168;-86
2021/01/11 09:03:50;;;;;;;25.33;17.43;;;;;;;;;;5059113;28;20187;-86
2021/01/11 09:06:34;;;;;;;23.50;16.77;;;;;;;;;;5059382;28;20197;-86
2021/01/11 09:09:04;;;;;;;24.17;14.27;;;;;;;;;;5077176;28;20175;-86
2021/01/11 09:11:30;;;;;;;23.03;15.90;;;;;;;;;;5077053;28;20174;-88
2021/01/11 09:14:10;;;;;;;23.10;15.63;;;;;;;;;;5077074;28;20233;-88
2021/01/11 09:16:37;;;;;;;23.53;16.83;;;;;;;;;;5058779;28;20205;-86
2021/01/11 09:19:10;;;;;;;18.07;14.07;;;;;;;;;;5076967;28;20676;-87
2021/01/11 09:21:39;;;;;;;21.23;15.77;;;;;;;;;;5058919;28;20175;-88
2021/01/11 09:24:05;;;;;;;22.60;15.73;;;;;;;;;;5077091;28;20166;-87
2021/01/11 09:26:35;;;;;;;28.33;17.67;;;;;;;;;;5058949;28;20595;-88
2021/01/11 09:29:01;;;;;;;28.77;19.43;;;;;;;;;;5058891;28;20209;-87
2021/01/11 09:31:28;;;;;;;25.77;16.87;;;;;;;;;;5076808;28;20263;-87
2021/01/11 09:33:55;;;;;;;26.77;17.53;;;;;;;;;;5058650;28;20246;-87
2021/01/11 09:36:21;;;;;;;24.00;17.37;;;;;;;;;;5058531;28;20215;-88
2021/01/11 09:38:48;;;;;;;29.67;18.60;;;;;;;;;;5058497;28;20181;-87
2021/01/11 09:41:15;;;;;;;24.87;18.13;;;;;;;;;;5076399;28;20252;-87
2021/01/11 09:43:44;;;;;;;23.30;16.70;;;;;;;;;;5058569;28;20180;-87
2021/01/11 09:46:11;;;;;;;26.83;16.13;;;;;;;;;;5076593;28;20203;-87
2021/01/11 09:48:37;;;;;;;32.97;20.97;;;;;;;;;;5058764;28;20189;-86
2021/01/11 09:51:04;;;;;;;28.83;18.30;;;;;;;;;;5076202;28;20201;-87
2021/01/11 09:53:30;;;;;;;34.47;21.53;;;;;;;;;;5058779;28;20180;-86
2021/01/11 09:55:56;;;;;;;27.83;18.90;;;;;;;;;;5076379;28;20219;-87
2021/01/11 09:58:22;;;;;;;28.20;16.80;;;;;;;;;;5076368;28;20182;-87
2021/01/11 10:00:48;;;;;;;34.13;18.03;;;;;;;;;;5076610;28;20171;-87
2021/01/11 10:03:14;;;;;;;29.53;19.87;;;;;;;;;;5058688;28;20182;-86
2021/01/11 10:05:41;;;;;;;30.23;19.77;;;;;;;;;;5057025;28;20176;-87
2021/01/11 10:08:09;;;;;;;30.50;19.00;;;;;;;;;;5058056;28;20273;-87
2021/01/11 10:10:35;;;;;;;45.13;23.80;;;;;;;;;;5058225;28;20178;-86
2021/01/11 10:13:01;;;;;;;35.70;18.80;;;;;;;;;;5058054;28;20209;-87
2021/01/11 10:15:27;;;;;;;29.73;18.53;;;;;;;;;;5057975;28;20186;-87
2021/01/11 10:17:53;;;;;;;30.20;17.70;;;;;;;;;;5057546;28;20211;-87
2021/01/11 10:20:24;;;;;;;30.83;18.50;;;;;;;;;;5057926;28;20183;-88
2021/01/11 10:22:51;;;;;;;27.47;17.37;;;;;;;;;;5057703;28;20665;-87
2021/01/11 10:25:18;;;;;;;28.67;17.70;;;;;;;;;;5075806;28;20171;-88
2021/01/11 10:27:44;;;;;;;25.40;14.97;;;;;;;;;;5075408;28;20220;-87
2021/01/11 10:30:11;;;;;;;29.27;15.97;;;;;;;;;;5075521;28;20183;-88
2021/01/11 10:32:37;;;;;;;20.60;12.40;;;;;;;;;;5057476;28;20214;-87
2021/01/11 10:35:03;;;;;;;25.63;16.83;;;;;;;;;;5075665;28;20546;-87
2021/01/11 10:37:32;;;;;;;29.90;18.10;;;;;;;;;;5075267;28;20213;-87
2021/01/11 10:39:59;;;;;;;38.40;21.23;;;;;;;;;;5057288;28;20180;-87
2021/01/11 10:42:27;;;;;;;28.77;17.20;;;;;;;;;;5057530;28;20179;-86
2021/01/11 10:44:59;;;;;;;34.50;18.40;;;;;;;;;;5076798;28;20171;-84
2021/01/11 10:47:31;;;;;;;28.33;16.17;;;;;;;;;;5057771;28;20224;-87
2021/01/11 10:50:01;;;;;;;45.20;18.33;;;;;;;;;;5057231;28;20238;-87
2021/01/11 10:52:29;;;;;;;22.97;13.93;;;;;;;;;;5075905;28;20550;-87
2021/01/11 10:54:57;;;;;;;31.10;18.60;;;;;;;;;;5057802;28;20224;-87
2021/01/11 10:57:25;;;;;;;28.57;16.80;;;;;;;;;;5057321;28;20305;-87
2021/01/11 10:59:53;;;;;;;32.07;18.90;;;;;;;;;;5075613;28;20178;-87
2021/01/11 11:02:21;;;;;;;24.30;15.37;;;;;;;;;;5075339;28;20234;-86
2021/01/11 11:04:48;;;;;;;27.73;15.67;;;;;;;;;;5075441;28;20606;-87
2021/01/11 11:07:15;;;;;;;20.47;14.17;;;;;;;;;;5057765;28;20200;-86
2021/01/11 11:09:41;;;;;;;23.80;14.73;;;;;;;;;;5075538;28;20235;-87
2021/01/11 11:12:07;;;;;;;21.90;15.17;;;;;;;;;;5075601;28;20242;-86
2021/01/11 11:14:33;;;;;;;27.03;17.73;;;;;;;;;;5057836;28;20269;-86
2021/01/11 11:17:00;;;;;;;24.93;15.80;;;;;;;;;;5056973;28;20309;-86
2021/01/11 11:19:30;;;;;;;22.30;13.90;;;;;;;;;;5057472;28;20180;-87
2021/01/11 11:21:57;;;;;;;19.33;13.50;;;;;;;;;;5075582;28;20176;-87
2021/01/11 11:24:27;;;;;;;14.90;10.87;;;;;;;;;;5074705;28;20231;-87
2021/01/11 11:26:56;;;;;;;23.70;14.73;;;;;;;;;;5056558;28;20205;-86
2021/01/11 11:29:27;;;;;;;14.20;12.60;;;;;;;;;;5074206;28;20180;-86
2021/01/11 11:31:55;;;;;;;29.40;16.07;;;;;;;;;;5056188;28;20183;-86
2021/01/11 11:34:23;;;;;;;22.77;15.20;;;;;;;;;;5056243;28;20194;-87
2021/01/11 11:36:56;;;;;;;16.53;11.60;;;;;;;;;;5074131;28;20218;-86
2021/01/11 11:39:29;;;;;;;19.50;12.33;;;;;;;;;;5074168;28;20175;-86
2021/01/11 11:42:00;;;;;;;20.67;13.70;;;;;;;;;;5056177;28;20176;-86
2021/01/11 11:44:27;;;;;;;19.37;14.07;;;;;;;;;;5056054;28;20286;-86
2021/01/11 11:46:53;;;;;;;22.87;13.60;;;;;;;;;;5073958;28;20202;-86
2021/01/11 11:49:20;;;;;;;25.30;15.80;;;;;;;;;;5074298;28;20187;-87
2021/01/11 11:51:47;;;;;;;23.93;14.73;;;;;;;;;;5073794;28;20176;-87
2021/01/11 11:54:14;;;;;;;22.27;12.80;;;;;;;;;;5055981;28;20182;-86
2021/01/11 11:56:42;;;;;;;20.83;13.30;;;;;;;;;;5073578;28;20240;-86
2021/01/11 11:59:09;;;;;;;28.27;15.57;;;;;;;;;;5074169;28;20645;-86
2021/01/11 12:01:42;;;;;;;22.37;15.90;;;;;;;;;;5073827;28;20186;-86
2021/01/11 12:04:09;;;;;;;25.02;16.83;;;;;;;;;;5055673;28;20410;-87
2021/01/11 12:06:42;;;;;;;21.23;14.02;;;;;;;;;;5055913;28;20406;-86
2021/01/11 12:09:09;;;;;;;20.77;13.50;;;;;;;;;;5073801;28;20196;-87
2021/01/11 12:11:41;;;;;;;21.33;12.97;;;;;;;;;;5073751;28;20253;-87
2021/01/11 12:14:10;;;;;;;18.03;12.87;;;;;;;;;;5074057;28;20217;-86
2021/01/11 12:16:36;;;;;;;19.57;11.33;;;;;;;;;;5055557;28;20295;-87
2021/01/11 12:19:10;;;;;;;23.30;12.83;;;;;;;;;;5073835;28;20197;-87
2021/01/11 12:21:38;;;;;;;23.23;15.60;;;;;;;;;;5055723;28;20174;-87
2021/01/11 12:24:06;;;;;;;21.20;15.07;;;;;;;;;;5073462;28;20167;-86
2021/01/11 12:26:42;;;;;;;20.23;14.17;;;;;;;;;;5055358;28;20231;-87
2021/01/11 12:29:14;;;;;;;25.90;17.83;;;;;;;;;;5072827;28;20713;-87
2021/01/11 12:31:41;;;;;;;20.50;12.93;;;;;;;;;;5074020;28;20194;-88
2021/01/11 12:34:08;;;;;;;19.70;13.17;;;;;;;;;;5055622;28;20700;-87
2021/01/11 12:36:36;;;;;;;18.13;13.47;;;;;;;;;;5056729;28;20204;-87
2021/01/11 12:39:05;;;;;;;29.20;16.30;;;;;;;;;;5073909;28;20165;-86
2021/01/11 12:41:33;;;;;;;15.77;10.43;;;;;;;;;;5055130;28;20567;-86
2021/01/11 12:44:07;;;;;;;14.53;11.13;;;;;;;;;;5055140;28;20170;-86
2021/01/11 12:46:34;;;;;;;16.83;11.43;;;;;;;;;;5055180;28;20724;-87
2021/01/11 12:49:05;;;;;;;23.20;14.27;;;;;;;;;;5055176;28;20676;-86
2021/01/11 12:51:32;;;;;;;17.73;12.30;;;;;;;;;;5073041;28;20180;-87
2021/01/11 12:53:59;;;;;;;23.03;14.10;;;;;;;;;;5055127;28;20186;-86
2021/01/11 12:56:31;;;;;;;23.07;14.23;;;;;;;;;;5072809;28;20222;-87
2021/01/11 12:59:00;;;;;;;16.77;12.47;;;;;;;;;;5072903;28;20674;-87
2021/01/11 13:01:34;;;;;;;18.00;12.63;;;;;;;;;;5054912;28;20256;-87
2021/01/11 13:04:04;;;;;;;21.13;13.67;;;;;;;;;;5054873;28;20195;-87
2021/01/11 13:06:32;;;;;;;15.77;11.07;;;;;;;;;;5055126;28;20198;-87
2021/01/11 13:09:01;;;;;;;16.97;10.93;;;;;;;;;;5054739;28;20182;-86
2021/01/11 13:11:31;;;;;;;20.57;13.60;;;;;;;;;;5072769;28;20182;-89
2021/01/11 13:14:01;;;;;;;20.83;14.53;;;;;;;;;;5072893;28;20177;-87
2021/01/11 13:16:27;;;;;;;14.80;12.23;;;;;;;;;;5073002;28;20594;-86
2021/01/11 13:18:54;;;;;;;23.63;15.20;;;;;;;;;;5072762;28;20170;-86
2021/01/11 13:21:23;;;;;;;23.50;15.47;;;;;;;;;;5055067;28;20558;-87
2021/01/11 13:23:50;;;;;;;15.83;11.80;;;;;;;;;;5073046;28;20173;-86
2021/01/11 13:26:30;;;;;;;23.43;15.67;;;;;;;;;;5072959;28;20201;-86
2021/01/11 13:29:04;;;;;;;21.97;14.87;;;;;;;;;;5145370;22;20242;-88
2021/01/11 13:31:33;;;;;;;20.80;13.87;;;;;;;;;;5093662;28;20256;-88
2021/01/11 13:34:03;;;;;;;23.20;15.97;;;;;;;;;;5093194;28;20525;-89
2021/01/11 13:36:37;;;;;;;21.50;15.70;;;;;;;;;;5093393;28;20196;-88
2021/01/11 13:39:11;;;;;;;25.47;15.33;;;;;;;;;;5096224;28;20199;-88
2021/01/11 13:41:46;;;;;;;17.80;13.27;;;;;;;;;;5098420;28;20178;-88
2021/01/11 13:44:21;;;;;;;22.20;14.43;;;;;;;;;;5097680;28;20169;-88
2021/01/11 13:46:51;;;;;;;23.23;14.30;;;;;;;;;;5096794;28;20181;-88
2021/01/11 13:49:23;;;;;;;25.77;17.47;;;;;;;;;;5096788;28;20187;-88
2021/01/11 13:52:00;;;;;;;28.90;18.70;;;;;;;;;;5098207;28;20159;-88
2021/01/11 13:54:31;;;;;;;28.70;19.73;;;;;;;;;;5096420;28;20646;-88
2021/01/11 13:57:04;;;;;;;25.53;16.40;;;;;;;;;;5096525;28;20679;-88
2021/01/11 13:59:33;;;;;;;25.27;16.67;;;;;;;;;;5096775;28;20177;-88
2021/01/11 14:02:05;;;;;;;22.20;14.53;;;;;;;;;;5096871;28;20547;-88
2021/01/11 14:04:38;;;;;;;31.07;19.50;;;;;;;;;;5105170;28;20174;-88
2021/01/11 14:07:09;;;;;;;25.40;16.57;;;;;;;;;;5109078;28;20178;-88
2021/01/11 14:09:41;;;;;;;24.37;16.33;;;;;;;;;;5108319;28;20182;-88
2021/01/11 14:12:13;;;;;;;23.20;14.63;;;;;;;;;;5109247;28;20194;-87
2021/01/11 14:14:47;;;;;;;23.17;18.00;;;;;;;;;;5109632;28;20182;-88
2021/01/11 14:17:17;;;;;;;22.73;16.30;;;;;;;;;;5109820;28;20206;-88
2021/01/11 14:19:49;;;;;;;22.97;16.43;;;;;;;;;;5108155;28;20181;-87
2021/01/11 14:22:20;;;;;;;27.13;18.33;;;;;;;;;;5107916;28;20179;-88
2021/01/11 14:24:48;;;;;;;23.93;17.07;;;;;;;;;;5107229;28;20184;-88
2021/01/11 14:27:18;;;;;;;28.23;18.10;;;;;;;;;;5111528;28;20200;-88
2021/01/11 14:29:50;;;;;;;24.80;16.17;;;;;;;;;;5112948;28;20193;-87
2021/01/11 14:32:18;;;;;;;17.50;13.53;;;;;;;;;;5113684;28;20255;-87
2021/01/11 14:34:50;;;;;;;20.27;14.60;;;;;;;;;;5113718;28;20169;-87
2021/01/11 14:37:24;;;;;;;19.30;12.43;;;;;;;;;;5113529;28;20268;-87
2021/01/11 14:39:55;;;;;;;22.23;16.60;;;;;;;;;;5113060;28;20171;-87
2021/01/11 14:42:25;;;;;;;28.63;17.73;;;;;;;;;;5110067;28;20174;-87